Time;durP1;ratioP1;P1;durP2;ratioP2;P2;SDS_P1;SDS_P2;PMS_P1;PMS_P2;Temp;Humidity;BMP_temperature;BMP_pressure;BME280_temperature;BME280_humidity;BME280_pressure;Samples;Min_cycle;Max_cycle;Signal;HPM_P1;HPM_P2
2023/11/13 00:01:33;;;;;;;83.00;74.60;;;5.30;94.70;;;;;;5035057;28;20187;-90
2023/11/13 00:03:59;;;;;;;81.67;72.40;;;5.30;94.70;;;;;;5035685;28;20206;-90
2023/11/13 00:06:25;;;;;;;82.57;73.07;;;5.30;94.70;;;;;;5053728;28;20224;-90
2023/11/13 00:08:50;;;;;;;81.93;73.20;;;5.30;94.60;;;;;;5035691;28;20198;-89
2023/11/13 00:11:16;;;;;;;77.57;69.37;;;5.20;94.60;;;;;;5035688;28;20176;-89
2023/11/13 00:13:41;;;;;;;73.53;66.07;;;5.20;94.60;;;;;;5035769;28;20194;-90
2023/11/13 00:16:07;;;;;;;82.90;69.83;;;5.20;94.60;;;;;;5035491;28;20203;-90
2023/11/13 00:18:33;;;;;;;76.60;68.63;;;5.20;94.60;;;;;;5035635;28;20183;-90
2023/11/13 00:20:58;;;;;;;75.83;67.73;;;5.20;94.60;;;;;;5035678;28;20205;-89
2023/11/13 00:23:24;;;;;;;73.50;65.60;;;5.20;94.60;;;;;;5035238;28;20195;-90
2023/11/13 00:25:50;;;;;;;74.17;64.03;;;5.20;94.60;;;;;;5035349;28;20230;-90
2023/11/13 00:28:15;;;;;;;95.17;86.03;;;5.20;94.50;;;;;;5053497;28;20172;-90
2023/11/13 00:30:41;;;;;;;91.70;83.20;;;5.30;94.50;;;;;;5053209;28;20175;-90
2023/11/13 00:33:08;;;;;;;97.17;87.33;;;5.20;94.40;;;;;;5035314;28;20563;-90
2023/11/13 00:35:33;;;;;;;95.57;86.37;;;5.20;94.40;;;;;;5035078;28;20206;-90
2023/11/13 00:37:59;;;;;;;96.87;87.60;;;5.20;94.30;;;;;;5035810;28;20172;-90
2023/11/13 00:40:25;;;;;;;100.00;89.93;;;5.20;94.30;;;;;;5035341;28;20534;-89
2023/11/13 00:42:51;;;;;;;95.83;87.37;;;5.20;94.30;;;;;;5053487;28;20631;-89
2023/11/13 00:45:16;;;;;;;99.57;90.33;;;5.10;94.30;;;;;;5053199;28;20208;-89
2023/11/13 00:47:42;;;;;;;101.83;92.03;;;5.10;94.30;;;;;;5035472;28;20182;-90
2023/11/13 00:50:10;;;;;;;98.33;89.10;;;5.00;94.40;;;;;;5035565;28;20175;-90
2023/11/13 00:52:36;;;;;;;98.00;88.93;;;5.10;94.50;;;;;;5035346;28;20203;-90
2023/11/13 00:55:04;;;;;;;94.33;85.57;;;5.00;94.40;;;;;;5035100;28;20190;-90
2023/11/13 00:57:29;;;;;;;96.83;88.10;;;4.90;94.40;;;;;;5034866;28;20234;-92
2023/11/13 00:59:55;;;;;;;99.27;90.03;;;4.80;94.40;;;;;;5035416;28;20187;-89
2023/11/13 01:02:23;;;;;;;101.27;92.43;;;4.80;94.40;;;;;;5035110;28;20187;-93
2023/11/13 01:04:49;;;;;;;73.20;65.57;;;4.80;94.50;;;;;;5035431;28;20237;-90
2023/11/13 01:07:16;;;;;;;72.80;65.00;;;4.80;94.50;;;;;;5035505;28;20196;-92
2023/11/13 01:09:42;;;;;;;92.67;84.33;;;4.80;94.50;;;;;;5036181;28;20176;-92
2023/11/13 01:12:08;;;;;;;97.80;89.13;;;4.80;94.50;;;;;;5038008;28;20172;-93
2023/11/13 01:14:34;;;;;;;103.63;94.50;;;4.60;94.40;;;;;;5057786;28;20230;-92
2023/11/13 01:17:00;;;;;;;72.43;65.17;;;4.50;94.40;;;;;;5039481;28;20286;-92
2023/11/13 01:19:27;;;;;;;73.37;65.83;;;4.40;94.40;;;;;;5039954;28;20282;-92
2023/11/13 01:21:53;;;;;;;99.17;90.10;;;4.30;94.50;;;;;;5039336;28;20249;-91
2023/11/13 01:24:18;;;;;;;93.73;85.27;;;4.30;94.50;;;;;;5038980;28;20211;-92
2023/11/13 01:26:44;;;;;;;101.63;92.57;;;4.30;94.60;;;;;;5040182;28;20199;-91
2023/11/13 01:29:10;;;;;;;66.83;59.80;;;4.30;94.70;;;;;;5038846;28;20187;-90
2023/11/13 01:31:35;;;;;;;70.50;63.20;;;4.30;94.80;;;;;;5039327;28;20181;-91
2023/11/13 01:34:01;;;;;;;67.57;60.30;;;4.30;94.80;;;;;;5039015;28;20178;-91
2023/11/13 01:36:26;;;;;;;66.20;59.03;;;4.30;94.90;;;;;;5042181;28;20216;-93
2023/11/13 01:38:52;;;;;;;65.77;58.70;;;4.30;94.90;;;;;;5039515;28;20183;-91
2023/11/13 01:41:17;;;;;;;68.73;61.20;;;4.20;95.00;;;;;;5039110;28;20665;-92
2023/11/13 01:43:43;;;;;;;65.87;58.93;;;4.30;95.10;;;;;;5038698;28;20210;-91
2023/11/13 01:46:09;;;;;;;71.10;63.30;;;4.30;95.00;;;;;;5038584;28;20203;-91
2023/11/13 01:48:35;;;;;;;67.93;61.03;;;4.20;95.10;;;;;;5038896;28;20178;-91
2023/11/13 01:51:01;;;;;;;68.13;59.43;;;4.20;95.00;;;;;;5039215;28;20707;-92
2023/11/13 01:53:27;;;;;;;70.13;61.80;;;4.20;95.10;;;;;;5038689;28;20611;-92
2023/11/13 01:55:56;;;;;;;70.50;62.83;;;4.20;95.10;;;;;;5038802;28;20200;-92
2023/11/13 01:58:22;;;;;;;69.17;62.07;;;4.10;95.00;;;;;;5038822;28;20663;-92
2023/11/13 02:00:48;;;;;;;70.07;62.57;;;4.00;95.00;;;;;;5038647;28;20187;-91
2023/11/13 02:03:16;;;;;;;71.67;63.83;;;4.00;95.00;;;;;;5038965;28;20744;-91
2023/11/13 02:05:46;;;;;;;72.63;65.03;;;3.90;95.10;;;;;;5038986;28;20202;-92
2023/11/13 02:08:12;;;;;;;92.40;83.50;;;4.00;95.10;;;;;;5039029;28;20180;-92
2023/11/13 02:10:39;;;;;;;93.57;84.60;;;3.90;95.10;;;;;;5038431;28;20590;-92
2023/11/13 02:13:07;;;;;;;95.77;86.33;;;3.90;95.10;;;;;;5038452;28;20270;-90
2023/11/13 02:15:33;;;;;;;97.23;88.43;;;3.90;95.20;;;;;;5038630;28;20677;-92
2023/11/13 02:18:00;;;;;;;96.57;87.30;;;3.90;95.20;;;;;;5038942;28;20183;-91
2023/11/13 02:20:25;;;;;;;95.17;85.43;;;3.90;95.20;;;;;;5038163;28;20683;-90
2023/11/13 02:22:51;;;;;;;91.87;82.93;;;3.90;95.20;;;;;;5037326;28;20179;-92
2023/11/13 02:25:22;;;;;;;98.70;88.83;;;3.90;95.20;;;;;;5037855;28;20180;-92
2023/11/13 02:27:52;;;;;;;91.83;83.10;;;3.90;95.20;;;;;;5038264;28;20174;-90
2023/11/13 02:30:18;;;;;;;88.27;79.90;;;4.00;95.20;;;;;;5038402;28;20277;-92
2023/11/13 02:32:44;;;;;;;85.97;77.77;;;3.90;95.20;;;;;;5038076;28;20175;-90
2023/11/13 02:35:10;;;;;;;84.57;76.97;;;3.90;95.10;;;;;;5037827;28;20174;-90
2023/11/13 02:37:36;;;;;;;83.40;75.83;;;3.90;95.20;;;;;;5037928;28;20214;-90
2023/11/13 02:40:01;;;;;;;85.10;77.73;;;3.90;95.10;;;;;;5037861;28;20182;-92
2023/11/13 02:42:34;;;;;;;86.87;79.67;;;3.80;95.00;;;;;;5037797;28;20183;-90
2023/11/13 02:44:59;;;;;;;57.83;52.23;;;3.70;95.00;;;;;;5038995;28;20199;-91
2023/11/13 02:47:25;;;;;;;56.33;50.63;;;3.70;95.00;;;;;;5037399;28;20578;-93
2023/11/13 02:49:51;;;;;;;77.30;71.00;;;3.70;94.90;;;;;;5037833;28;20194;-91
2023/11/13 02:52:17;;;;;;;91.60;83.70;;;3.50;94.90;;;;;;5037665;28;20172;-90
2023/11/13 02:54:43;;;;;;;99.73;91.83;;;3.40;94.90;;;;;;5038132;28;20211;-92
2023/11/13 02:57:08;;;;;;;65.33;59.00;;;3.40;95.00;;;;;;5037499;28;20289;-91
2023/11/13 02:59:34;;;;;;;67.97;61.20;;;3.40;95.00;;;;;;5037361;28;20205;-91
2023/11/13 03:01:59;;;;;;;92.03;84.27;;;3.40;95.00;;;;;;5037190;28;20218;-92
2023/11/13 03:04:25;;;;;;;93.60;84.93;;;3.40;95.00;;;;;;5037292;28;20206;-92
2023/11/13 03:06:50;;;;;;;66.07;59.53;;;3.50;95.10;;;;;;5037228;28;20229;-92
2023/11/13 03:09:16;;;;;;;63.90;57.67;;;3.50;95.10;;;;;;5037476;28;20701;-91
2023/11/13 03:11:41;;;;;;;59.40;53.70;;;3.60;95.10;;;;;;5055201;28;20172;-92
2023/11/13 03:14:07;;;;;;;61.10;55.27;;;3.60;95.10;;;;;;5036998;28;20195;-91
2023/11/13 03:16:32;;;;;;;57.43;52.03;;;3.50;95.00;;;;;;5037282;28;20207;-90
2023/11/13 03:18:58;;;;;;;58.13;52.47;;;3.50;95.00;;;;;;5037080;28;20185;-92
2023/11/13 03:21:23;;;;;;;61.33;55.33;;;3.50;95.00;;;;;;5036995;28;20233;-92
2023/11/13 03:23:49;;;;;;;61.77;55.80;;;3.50;95.00;;;;;;5036889;28;20200;-90
2023/11/13 03:26:17;;;;;;;59.57;54.07;;;3.40;94.90;;;;;;5036992;28;20257;-92
2023/11/13 03:28:43;;;;;;;60.47;54.47;;;3.30;95.00;;;;;;5036687;28;20211;-91
2023/11/13 03:31:09;;;;;;;58.70;52.97;;;3.40;95.00;;;;;;5036721;28;20180;-91
2023/11/13 03:33:35;;;;;;;59.80;53.93;;;3.30;94.90;;;;;;5054661;28;20187;-91
2023/11/13 03:36:01;;;;;;;61.63;55.30;;;3.20;94.80;;;;;;5036394;28;20210;-91
2023/11/13 03:38:26;;;;;;;57.73;52.00;;;3.20;94.80;;;;;;5036775;28;20233;-92
2023/11/13 03:40:52;;;;;;;59.47;53.87;;;3.20;94.80;;;;;;5036820;28;20649;-91
2023/11/13 03:43:18;;;;;;;56.30;51.00;;;3.20;94.80;;;;;;5036709;28;20754;-92
2023/11/13 03:45:44;;;;;;;81.77;75.23;;;3.20;94.80;;;;;;5036883;28;20192;-92
2023/11/13 03:48:10;;;;;;;86.03;79.17;;;3.20;94.70;;;;;;5036938;28;20201;-92
2023/11/13 03:50:36;;;;;;;87.87;80.37;;;3.10;94.70;;;;;;5037516;28;20194;-92
2023/11/13 03:53:01;;;;;;;87.83;80.90;;;3.10;94.70;;;;;;5037343;28;20172;-91
2023/11/13 03:55:27;;;;;;;84.87;77.97;;;3.00;94.60;;;;;;5036984;28;20183;-91
2023/11/13 03:57:52;;;;;;;88.63;81.50;;;3.00;94.60;;;;;;5036612;28;20656;-91
2023/11/13 04:00:19;;;;;;;88.40;81.43;;;3.00;94.50;;;;;;5037026;28;20636;-91
2023/11/13 04:02:48;;;;;;;94.93;87.50;;;2.90;94.40;;;;;;5036784;28;20179;-91
2023/11/13 04:05:14;;;;;;;96.90;89.13;;;2.80;94.30;;;;;;5036845;28;20191;-91
2023/11/13 04:07:39;;;;;;;95.27;87.70;;;2.80;94.40;;;;;;5036593;28;20183;-91
2023/11/13 04:10:05;;;;;;;64.87;59.17;;;2.80;94.40;;;;;;5037900;28;20191;-91
2023/11/13 04:12:31;;;;;;;62.00;56.37;;;2.80;94.40;;;;;;5036801;28;20670;-92
2023/11/13 04:14:57;;;;;;;61.10;55.57;;;2.80;94.40;;;;;;5036666;28;20261;-92
2023/11/13 04:17:23;;;;;;;63.47;57.60;;;2.80;94.30;;;;;;5039566;28;20216;-91
2023/11/13 04:19:48;;;;;;;65.23;59.30;;;2.80;94.30;;;;;;5036970;28;20262;-92
2023/11/13 04:22:14;;;;;;;64.97;58.83;;;2.90;94.30;;;;;;5036372;28;20256;-91
2023/11/13 04:24:40;;;;;;;65.23;59.30;;;2.90;94.30;;;;;;5053703;28;20219;-93
2023/11/13 04:27:06;;;;;;;66.93;60.43;;;2.80;94.30;;;;;;5035982;28;20570;-91
2023/11/13 04:29:32;;;;;;;91.07;82.77;;;2.80;94.30;;;;;;5037095;28;20548;-92
2023/11/13 04:31:58;;;;;;;91.87;83.90;;;2.80;94.20;;;;;;5036066;28;20179;-91
2023/11/13 04:34:23;;;;;;;92.40;83.97;;;2.80;94.20;;;;;;5035913;28;20184;-91
2023/11/13 04:36:49;;;;;;;98.57;90.50;;;2.80;94.20;;;;;;5035745;28;20309;-91
2023/11/13 04:39:15;;;;;;;92.23;84.37;;;2.80;94.20;;;;;;5035960;28;20183;-91
2023/11/13 04:41:41;;;;;;;92.03;83.83;;;2.80;94.30;;;;;;5036191;28;20623;-91
2023/11/13 04:44:07;;;;;;;91.17;83.27;;;2.90;94.30;;;;;;5035946;28;20293;-91
2023/11/13 04:46:32;;;;;;;65.00;59.00;;;2.90;94.30;;;;;;5035377;28;20231;-92
2023/11/13 04:48:58;;;;;;;65.43;59.37;;;2.80;94.30;;;;;;5035682;28;20198;-92
2023/11/13 04:51:24;;;;;;;64.60;58.47;;;2.90;94.20;;;;;;5036218;28;20212;-92
2023/11/13 04:53:49;;;;;;;63.90;57.70;;;2.80;94.30;;;;;;5035153;28;20245;-91
2023/11/13 04:56:15;;;;;;;63.40;57.30;;;2.80;94.30;;;;;;5035031;28;20293;-89
2023/11/13 04:58:41;;;;;;;63.37;57.33;;;2.80;94.20;;;;;;5035230;28;20179;-91
2023/11/13 05:01:07;;;;;;;83.90;76.63;;;2.80;94.20;;;;;;5035077;28;20190;-91
2023/11/13 05:03:33;;;;;;;83.00;75.47;;;2.80;94.20;;;;;;5035173;28;20192;-90
2023/11/13 05:06:00;;;;;;;84.23;77.30;;;2.80;94.20;;;;;;5035599;28;20196;-91
2023/11/13 05:08:26;;;;;;;89.87;81.77;;;2.80;94.20;;;;;;5034980;28;20234;-91
2023/11/13 05:10:51;;;;;;;86.37;78.50;;;2.80;94.20;;;;;;5034998;28;20187;-91
2023/11/13 05:13:17;;;;;;;81.17;74.27;;;2.80;94.20;;;;;;5035003;28;20723;-91
2023/11/13 05:15:42;;;;;;;80.70;74.00;;;2.80;94.20;;;;;;5052877;28;20196;-91
2023/11/13 05:18:08;;;;;;;80.63;73.70;;;2.70;94.10;;;;;;5035152;28;20204;-90
2023/11/13 05:20:39;;;;;;;84.10;76.77;;;2.60;94.00;;;;;;5034887;28;20718;-90
2023/11/13 05:23:06;;;;;;;79.73;72.93;;;2.70;94.10;;;;;;5035127;28;20559;-92
2023/11/13 05:25:32;;;;;;;63.63;57.73;;;2.60;94.00;;;;;;5035276;28;20206;-91
2023/11/13 05:27:59;;;;;;;59.40;54.10;;;2.50;93.90;;;;;;5052673;28;20176;-91
2023/11/13 05:30:25;;;;;;;59.93;54.37;;;2.60;94.00;;;;;;5034922;28;20175;-91
2023/11/13 05:32:50;;;;;;;59.43;53.40;;;2.60;94.00;;;;;;5052698;28;20176;-91
2023/11/13 05:35:16;;;;;;;55.67;50.47;;;2.60;94.00;;;;;;5034611;28;20187;-91
2023/11/13 05:37:42;;;;;;;59.37;53.67;;;2.60;93.90;;;;;;5052504;28;20197;-91
2023/11/13 05:40:08;;;;;;;56.47;51.33;;;2.50;93.90;;;;;;5052948;28;20203;-90
2023/11/13 05:42:37;;;;;;;54.80;49.80;;;2.50;93.90;;;;;;5034736;28;20184;-91
2023/11/13 05:45:02;;;;;;;56.63;50.97;;;2.50;93.90;;;;;;5034969;28;20253;-91
2023/11/13 05:47:28;;;;;;;54.70;49.93;;;2.60;93.90;;;;;;5034638;28;20257;-91
2023/11/13 05:49:53;;;;;;;74.77;68.67;;;2.50;93.80;;;;;;5034890;28;20168;-91
2023/11/13 05:52:19;;;;;;;74.00;68.20;;;2.50;93.80;;;;;;5034470;28;20179;-91
2023/11/13 05:54:45;;;;;;;71.80;66.00;;;2.50;93.80;;;;;;5034706;28;20190;-90
2023/11/13 05:57:10;;;;;;;73.00;66.60;;;2.50;93.80;;;;;;5034568;28;20294;-91
2023/11/13 05:59:36;;;;;;;73.37;67.43;;;2.50;93.80;;;;;;5036774;28;20237;-91
2023/11/13 06:02:02;;;;;;;73.80;67.30;;;2.50;93.80;;;;;;5038639;28;20637;-90
2023/11/13 06:04:28;;;;;;;72.77;67.07;;;2.50;93.80;;;;;;5038062;28;20302;-90
2023/11/13 06:06:53;;;;;;;75.43;69.20;;;2.50;93.70;;;;;;5037883;28;20290;-90
2023/11/13 06:09:19;;;;;;;78.30;71.30;;;2.40;93.60;;;;;;5038065;28;20186;-90
2023/11/13 06:11:46;;;;;;;53.57;48.83;;;2.30;93.50;;;;;;5038008;28;20214;-89
2023/11/13 06:14:12;;;;;;;51.93;47.23;;;2.30;93.40;;;;;;5038168;28;20183;-93
2023/11/13 06:16:37;;;;;;;53.50;48.70;;;2.20;93.50;;;;;;5037738;28;20198;-91
2023/11/13 06:19:07;;;;;;;53.00;47.70;;;2.30;93.50;;;;;;5038106;28;20177;-91
2023/11/13 06:21:33;;;;;;;52.47;47.90;;;2.30;93.50;;;;;;5038045;28;20215;-91
2023/11/13 06:23:58;;;;;;;54.20;49.57;;;2.20;93.30;;;;;;5038090;28;20696;-91
2023/11/13 06:26:24;;;;;;;54.47;49.40;;;2.20;93.30;;;;;;5038252;28;20331;-90
2023/11/13 06:28:50;;;;;;;51.43;46.53;;;2.20;93.30;;;;;;5038064;28;20171;-92
2023/11/13 06:31:23;;;;;;;72.77;67.03;;;2.10;93.30;;;;;;5037916;28;20183;-92
2023/11/13 06:33:49;;;;;;;73.83;67.83;;;2.10;93.30;;;;;;5037857;28;20666;-91
2023/11/13 06:36:14;;;;;;;75.80;69.93;;;2.10;93.20;;;;;;5037467;28;20335;-89
2023/11/13 06:38:40;;;;;;;75.13;69.23;;;2.20;93.30;;;;;;5037908;28;20182;-89
2023/11/13 06:41:07;;;;;;;76.77;70.70;;;2.20;93.30;;;;;;5038438;28;20181;-91
2023/11/13 06:43:33;;;;;;;74.47;68.23;;;2.20;93.20;;;;;;5037352;28;20202;-90
2023/11/13 06:46:03;;;;;;;70.03;64.47;;;2.10;93.30;;;;;;5055092;28;20287;-90
2023/11/13 06:48:29;;;;;;;50.97;46.50;;;2.20;93.30;;;;;;5055013;28;20169;-89
2023/11/13 06:50:54;;;;;;;52.27;47.77;;;2.20;93.30;;;;;;5037220;28;20204;-89
2023/11/13 06:53:20;;;;;;;70.17;64.33;;;2.30;93.40;;;;;;5055330;28;20207;-90
2023/11/13 06:55:47;;;;;;;71.97;65.93;;;2.30;93.40;;;;;;5037192;28;20290;-91
2023/11/13 06:58:14;;;;;;;56.03;50.50;;;2.30;93.40;;;;;;5054854;28;20168;-91
2023/11/13 07:00:39;;;;;;;57.43;52.07;;;2.30;93.40;;;;;;5037155;28;20213;-91
2023/11/13 07:03:05;;;;;;;77.47;70.83;;;2.30;93.40;;;;;;5036907;28;20194;-91
2023/11/13 07:05:31;;;;;;;71.67;65.53;;;2.30;93.30;;;;;;5037357;28;20168;-91
2023/11/13 07:07:57;;;;;;;81.40;74.77;;;2.30;93.30;;;;;;5036837;28;20267;-89
2023/11/13 07:10:26;;;;;;;55.37;50.57;;;2.30;93.30;;;;;;5036457;28;20206;-92
2023/11/13 07:12:52;;;;;;;59.13;53.93;;;2.30;93.20;;;;;;5036895;28;20233;-89
2023/11/13 07:15:19;;;;;;;84.50;77.97;;;2.30;93.20;;;;;;5036948;28;20649;-90
2023/11/13 07:17:45;;;;;;;86.67;80.07;;;2.30;93.20;;;;;;5036665;28;20198;-88
2023/11/13 07:20:13;;;;;;;93.27;86.40;;;2.30;93.20;;;;;;5037734;28;20267;-91
2023/11/13 07:22:39;;;;;;;63.47;58.10;;;2.40;93.20;;;;;;5036662;28;20199;-89
2023/11/13 07:25:05;;;;;;;67.10;61.60;;;2.40;93.20;;;;;;5036553;28;20235;-91
2023/11/13 07:27:30;;;;;;;94.03;86.83;;;2.40;93.20;;;;;;5037226;28;20213;-92
2023/11/13 07:29:56;;;;;;;98.30;91.03;;;2.50;93.20;;;;;;5036476;28;20177;-92
2023/11/13 07:32:25;;;;;;;136.67;126.37;;;2.40;93.20;;;;;;5036770;28;20179;-90
2023/11/13 07:34:53;;;;;;;87.17;80.47;;;2.50;93.20;;;;;;5054230;28;20169;-91
2023/11/13 07:37:19;;;;;;;89.43;82.63;;;2.50;93.20;;;;;;5036120;28;20217;-91
2023/11/13 07:39:48;;;;;;;133.13;123.53;;;2.60;93.30;;;;;;5036284;28;20270;-91
2023/11/13 07:42:14;;;;;;;131.23;121.73;;;2.70;93.40;;;;;;5054071;28;20188;-91
2023/11/13 07:44:46;;;;;;;127.50;117.77;;;2.70;93.40;;;;;;5053934;28;20201;-91
2023/11/13 07:47:11;;;;;;;82.57;76.07;;;2.70;93.40;;;;;;5036106;28;20202;-90
2023/11/13 07:49:37;;;;;;;88.73;81.47;;;2.80;93.50;;;;;;5053957;28;20251;-91
2023/11/13 07:52:04;;;;;;;123.47;114.80;;;2.80;93.50;;;;;;5036359;28;20181;-91
2023/11/13 07:54:29;;;;;;;131.10;121.70;;;2.80;93.50;;;;;;5036020;28;20182;-89
2023/11/13 07:56:55;;;;;;;138.47;128.57;;;2.80;93.60;;;;;;5035976;28;20208;-91
2023/11/13 07:59:20;;;;;;;85.60;78.87;;;2.80;93.60;;;;;;5035999;28;20221;-91
2023/11/13 08:01:46;;;;;;;91.03;83.63;;;2.90;93.70;;;;;;5036341;28;20265;-91
2023/11/13 08:04:11;;;;;;;132.33;122.83;;;3.00;93.80;;;;;;5036015;28;20249;-91
2023/11/13 08:06:37;;;;;;;132.13;122.83;;;3.10;93.80;;;;;;5036265;28;20350;-92
2023/11/13 08:09:09;;;;;;;137.23;127.10;;;3.00;93.80;;;;;;5036074;28;20168;-91
2023/11/13 08:11:36;;;;;;;89.40;82.57;;;3.10;93.90;;;;;;5036078;28;20551;-91
2023/11/13 08:14:03;;;;;;;93.13;85.67;;;3.20;94.00;;;;;;5036259;28;20269;-91
2023/11/13 08:16:31;;;;;;;131.80;122.60;;;3.20;93.90;;;;;;5035934;28;20198;-91
2023/11/13 08:18:56;;;;;;;126.90;117.80;;;3.10;93.90;;;;;;5036140;28;20175;-91
2023/11/13 08:21:22;;;;;;;131.67;122.13;;;3.00;93.90;;;;;;5035202;28;20240;-90
2023/11/13 08:23:48;;;;;;;85.47;78.50;;;3.00;94.00;;;;;;5036517;28;20236;-91
2023/11/13 08:26:14;;;;;;;88.63;81.80;;;3.10;94.10;;;;;;5035813;28;20325;-91
2023/11/13 08:28:40;;;;;;;128.60;119.50;;;3.30;94.30;;;;;;5036336;28;20328;-91
2023/11/13 08:31:07;;;;;;;124.57;116.03;;;3.30;94.20;;;;;;5036644;28;20189;-92
2023/11/13 08:33:33;;;;;;;134.67;125.07;;;3.30;94.20;;;;;;5035003;28;20612;-92
2023/11/13 08:36:00;;;;;;;84.70;78.03;;;3.40;94.30;;;;;;5035966;28;20211;-91
2023/11/13 08:38:26;;;;;;;90.73;84.17;;;3.50;94.30;;;;;;5036247;28;20190;-91
2023/11/13 08:40:52;;;;;;;123.57;115.17;;;3.60;94.40;;;;;;5036552;28;20604;-91
2023/11/13 08:43:18;;;;;;;125.60;116.60;;;3.60;94.30;;;;;;5035769;28;20213;-91
2023/11/13 08:45:44;;;;;;;125.27;116.47;;;3.70;94.40;;;;;;5036581;28;20199;-91
2023/11/13 08:48:10;;;;;;;83.80;77.87;;;3.70;94.40;;;;;;5035595;28;20167;-92
2023/11/13 08:50:37;;;;;;;78.60;72.90;;;3.70;94.40;;;;;;5036068;28;20183;-92
2023/11/13 08:53:05;;;;;;;80.63;74.63;;;3.80;94.50;;;;;;5037398;28;20178;-92
2023/11/13 08:55:30;;;;;;;78.73;72.47;;;3.80;94.50;;;;;;5037466;28;20185;-92
2023/11/13 08:57:57;;;;;;;76.27;70.63;;;3.80;94.50;;;;;;5037914;28;20647;-92
2023/11/13 09:00:24;;;;;;;79.50;73.63;;;3.90;94.50;;;;;;5037989;28;20225;-92
2023/11/13 09:02:54;;;;;;;77.40;71.33;;;3.90;94.50;;;;;;5038295;28;20557;-93
2023/11/13 09:05:23;;;;;;;83.27;76.97;;;4.00;94.50;;;;;;5038328;28;20217;-93
2023/11/13 09:07:50;;;;;;;84.53;78.07;;;4.00;94.50;;;;;;5035790;28;20715;-91
2023/11/13 09:10:16;;;;;;;89.20;81.90;;;4.10;94.50;;;;;;5035492;28;20271;-91
2023/11/13 09:12:43;;;;;;;89.00;82.50;;;4.20;94.60;;;;;;5038767;28;20203;-92
2023/11/13 09:15:12;;;;;;;93.53;86.23;;;4.30;94.60;;;;;;5040288;28;20180;-91
2023/11/13 09:17:43;;;;;;;90.53;83.87;;;4.40;94.60;;;;;;5038688;28;20278;-93
2023/11/13 09:20:15;;;;;;;125.50;116.40;;;4.50;94.60;;;;;;5042116;28;20183;-92
2023/11/13 09:22:41;;;;;;;125.67;116.67;;;4.50;94.50;;;;;;5041922;28;20216;-91
2023/11/13 09:25:07;;;;;;;125.87;117.30;;;4.60;94.50;;;;;;5057096;28;20199;-92
2023/11/13 09:27:33;;;;;;;125.23;116.00;;;4.60;94.40;;;;;;5036687;28;20199;-92
2023/11/13 09:29:58;;;;;;;124.40;115.67;;;4.60;94.40;;;;;;5054740;28;20164;-92
2023/11/13 09:32:24;;;;;;;125.07;116.43;;;4.70;94.30;;;;;;5054148;28;20165;-93
2023/11/13 09:34:54;;;;;;;119.77;111.57;;;4.70;94.30;;;;;;5040402;28;20180;-89
2023/11/13 09:37:21;;;;;;;128.97;119.73;;;4.80;94.30;;;;;;5040074;28;20747;-90
2023/11/13 09:39:49;;;;;;;120.57;112.03;;;4.80;94.30;;;;;;5041014;28;20647;-92
2023/11/13 09:42:18;;;;;;;113.00;104.47;;;4.90;94.30;;;;;;5041145;28;20310;-91
2023/11/13 09:44:47;;;;;;;113.83;105.57;;;5.10;94.30;;;;;;5040805;28;20200;-93
2023/11/13 09:47:21;;;;;;;109.60;101.87;;;5.20;94.20;;;;;;5044405;28;20215;-92
2023/11/13 09:50:03;;;;;;;106.53;99.13;;;5.30;94.30;;;;;;5047949;28;20161;-92
2023/11/13 09:52:30;;;;;;;115.17;107.07;;;5.30;94.10;;;;;;5038664;28;20156;-91
2023/11/13 09:54:57;;;;;;;123.77;115.00;;;5.30;94.00;;;;;;5038521;28;20172;-91
2023/11/13 09:57:23;;;;;;;117.63;109.63;;;5.30;94.00;;;;;;5063339;28;20291;-92
2023/11/13 09:59:51;;;;;;;117.30;109.60;;;5.30;93.90;;;;;;5045030;28;20176;-92
2023/11/13 10:02:20;;;;;;;108.47;100.67;;;5.30;93.90;;;;;;5042719;28;20183;-91
2023/11/13 10:04:46;;;;;;;112.03;104.23;;;5.50;93.90;;;;;;5041210;28;20223;-92
2023/11/13 10:07:11;;;;;;;112.50;105.07;;;5.50;93.80;;;;;;5041669;28;20196;-92
2023/11/13 10:09:37;;;;;;;73.33;68.07;;;5.50;93.70;;;;;;5040399;28;20176;-92
2023/11/13 10:12:07;;;;;;;63.73;58.63;;;5.50;93.50;;;;;;5039839;28;20200;-92
2023/11/13 10:14:33;;;;;;;105.93;98.90;;;5.50;93.50;;;;;;5039422;28;20659;-92
2023/11/13 10:17:02;;;;;;;100.83;93.40;;;5.50;93.30;;;;;;5038586;28;20196;-92
2023/11/13 10:19:28;;;;;;;108.80;101.47;;;5.60;93.20;;;;;;5038472;28;20176;-91
2023/11/13 10:21:56;;;;;;;73.73;68.30;;;5.70;93.20;;;;;;5039126;28;20182;-91
2023/11/13 10:24:24;;;;;;;61.90;57.13;;;5.80;93.10;;;;;;5039759;28;20212;-92
2023/11/13 10:26:50;;;;;;;93.67;87.20;;;5.80;93.00;;;;;;5039171;28;20269;-90
2023/11/13 10:29:30;;;;;;;99.90;92.67;;;5.90;92.80;;;;;;5038341;28;20186;-90
2023/11/13 10:31:58;;;;;;;76.73;70.77;;;5.90;92.50;;;;;;5038336;28;20164;-91
2023/11/13 10:34:41;;;;;;;56.47;51.80;;;6.00;92.30;;;;;;5038601;28;20176;-90
2023/11/13 10:37:11;;;;;;;61.50;57.10;;;6.00;92.00;;;;;;5040787;28;20211;-93
2023/11/13 10:39:40;;;;;;;97.57;90.73;;;6.00;91.80;;;;;;5042899;28;20719;-91
2023/11/13 10:42:22;;;;;;;95.33;88.50;;;6.00;91.80;;;;;;5039080;28;20222;-92
2023/11/13 10:44:56;;;;;;;56.53;52.17;;;6.10;91.60;;;;;;5037938;28;20226;-92
2023/11/13 10:47:29;;;;;;;52.87;48.77;;;6.20;91.50;;;;;;5038351;28;20219;-92
2023/11/13 10:49:57;;;;;;;52.97;48.70;;;6.20;91.40;;;;;;5058764;28;20156;-90
2023/11/13 10:52:33;;;;;;;50.73;46.60;;;6.20;91.20;;;;;;5039718;28;20199;-93
2023/11/13 10:55:03;;;;;;;56.67;52.47;;;6.30;91.00;;;;;;5043496;28;20191;-91
2023/11/13 10:57:28;;;;;;;60.53;55.93;;;6.30;90.90;;;;;;5041768;28;20207;-92
2023/11/13 10:59:56;;;;;;;55.13;50.40;;;6.50;91.00;;;;;;5037937;28;20267;-91
2023/11/13 11:02:48;;;;;;;59.83;55.30;;;6.60;90.80;;;;;;5037506;28;20176;-91
2023/11/13 11:05:26;;;;;;;55.33;51.17;;;6.60;90.70;;;;;;5037648;28;20196;-92
2023/11/13 11:07:54;;;;;;;54.37;49.63;;;6.60;90.50;;;;;;5038198;28;20199;-92
2023/11/13 11:10:27;;;;;;;55.27;51.07;;;6.70;90.30;;;;;;5038273;28;20243;-91
2023/11/13 11:13:14;;;;;;;54.53;50.37;;;6.70;90.20;;;;;;5038043;28;20160;-92
2023/11/13 11:16:06;;;;;;;51.20;47.47;;;6.80;90.10;;;;;;5038311;28;20743;-90
2023/11/13 11:18:49;;;;;;;56.00;51.60;;;6.80;89.80;;;;;;5037815;28;20505;-90
2023/11/13 11:21:35;;;;;;;55.73;51.43;;;6.80;89.80;;;;;;5037073;28;20161;-90
2023/11/13 11:24:07;;;;;;;54.80;50.60;;;6.80;89.80;;;;;;5037122;28;20679;-90
2023/11/13 11:26:53;;;;;;;87.87;81.67;;;6.80;89.80;;;;;;5037751;28;20191;-90
2023/11/13 11:29:40;;;;;;;88.33;81.87;;;6.90;89.90;;;;;;5037363;28;20266;-92
2023/11/13 11:32:15;;;;;;;87.70;81.57;;;7.00;89.90;;;;;;5038345;28;20226;-93
2023/11/13 11:34:42;;;;;;;86.17;79.93;;;7.10;89.80;;;;;;5039376;28;20179;-91
2023/11/13 11:37:15;;;;;;;82.40;76.77;;;7.20;89.70;;;;;;5042489;28;20662;-92
2023/11/13 11:39:46;;;;;;;82.27;76.27;;;7.20;89.70;;;;;;5041622;28;20194;-93
2023/11/13 11:42:24;;;;;;;81.23;75.73;;;7.20;89.60;;;;;;5041148;28;20171;-92
2023/11/13 11:44:59;;;;;;;72.17;67.27;;;7.30;89.60;;;;;;5040004;28;20188;-92
2023/11/13 11:47:25;;;;;;;77.87;71.90;;;7.30;89.30;;;;;;5038287;28;20195;-94
2023/11/13 11:49:52;;;;;;;76.13;70.53;;;7.30;89.20;;;;;;5039446;28;20176;-92
2023/11/13 11:52:38;;;;;;;74.13;68.63;;;7.30;89.20;;;;;;5039560;28;20172;-92
2023/11/13 11:55:04;;;;;;;76.03;70.53;;;7.30;89.20;;;;;;5038715;28;20164;-93
2023/11/13 11:57:29;;;;;;;76.70;70.77;;;7.50;89.30;;;;;;5038911;28;20207;-92
2023/11/13 12:07:36;;;;;;;80.17;74.17;;;7.70;88.80;;;;;;5058463;28;20223;-90
2023/11/13 12:10:04;;;;;;;43.70;40.33;;;7.80;88.70;;;;;;5055216;28;20168;-92
2023/11/13 12:12:30;;;;;;;44.97;41.37;;;8.00;88.80;;;;;;5065619;28;20243;-92
2023/11/13 12:14:56;;;;;;;70.00;65.07;;;8.10;88.70;;;;;;5064023;28;20210;-91
2023/11/13 12:17:22;;;;;;;73.37;68.00;;;8.10;88.60;;;;;;5068929;28;20223;-91
2023/11/13 12:19:50;;;;;;;75.70;70.43;;;8.20;88.50;;;;;;5059049;28;20179;-91
2023/11/13 12:22:15;;;;;;;47.03;43.20;;;8.10;88.30;;;;;;5056672;28;20196;-92
2023/11/13 12:24:41;;;;;;;45.37;41.77;;;8.10;88.20;;;;;;5088010;22;20712;-92
2023/11/13 12:27:07;;;;;;;70.47;65.37;;;8.10;88.50;;;;;;5023240;28;20286;-92
2023/11/13 12:29:32;;;;;;;77.70;72.40;;;8.20;88.40;;;;;;5024246;28;20169;-92
2023/11/13 12:32:00;;;;;;;72.33;67.07;;;8.20;88.40;;;;;;5024063;28;20550;-92
2023/11/13 12:34:26;;;;;;;38.27;35.17;;;8.20;88.50;;;;;;5022843;28;20195;-92
2023/11/13 12:36:51;;;;;;;40.27;37.30;;;8.10;87.80;;;;;;5021653;28;20200;-91
2023/11/13 12:39:26;;;;;;;64.10;58.40;;;8.10;87.80;;;;;;5021498;28;20181;-91
2023/11/13 12:41:51;;;;;;;56.07;51.80;;;8.10;87.90;;;;;;5021371;28;20549;-92